createdAt,value
2022-11-07T00:01:36.016Z,11.40
2022-11-07T00:04:03.080Z,11.40
2022-11-07T00:06:29.880Z,11.40
2022-11-07T00:08:59.132Z,11.40
2022-11-07T00:11:27.163Z,11.40
2022-11-07T00:13:54.543Z,11.50
2022-11-07T00:16:21.353Z,11.50
2022-11-07T00:18:48.533Z,11.60
2022-11-07T00:21:15.462Z,11.60
2022-11-07T00:23:43.620Z,11.60
2022-11-07T00:26:13.181Z,11.60
2022-11-07T00:28:42.990Z,11.70
2022-11-07T00:31:10.401Z,11.70
2022-11-07T00:33:37.181Z,11.80
2022-11-07T00:36:04.611Z,11.90
2022-11-07T00:38:31.422Z,11.90
2022-11-07T00:41:03.641Z,11.90
2022-11-07T00:43:31.956Z,11.90
2022-11-07T00:46:01.380Z,11.90
2022-11-07T00:48:28.599Z,11.90
2022-11-07T00:50:55.535Z,11.90
2022-11-07T00:53:23.051Z,12.00
2022-11-07T00:55:50.021Z,12.00
2022-11-07T00:58:17.797Z,12.00
2022-11-07T01:00:44.515Z,12.00
2022-11-07T01:03:29.695Z,12.00
2022-11-07T01:06:01.990Z,12.10
2022-11-07T01:08:29.300Z,12.00
2022-11-07T01:10:56.980Z,11.90
2022-11-07T01:13:24.488Z,12.00
2022-11-07T01:15:51.516Z,12.00
2022-11-07T01:18:18.820Z,12.00
2022-11-07T01:20:45.563Z,12.00
2022-11-07T01:23:12.840Z,12.00
2022-11-07T01:25:40.483Z,12.10
2022-11-07T01:28:08.537Z,12.10
2022-11-07T01:30:39.940Z,12.00
2022-11-07T01:33:07.022Z,12.10
2022-11-07T01:35:35.954Z,12.10
2022-11-07T01:38:02.955Z,12.10
2022-11-07T01:40:29.890Z,12.20
2022-11-07T01:42:56.827Z,12.20
2022-11-07T01:45:28.235Z,12.10
2022-11-07T01:47:58.655Z,12.10
2022-11-07T01:50:26.464Z,12.10
2022-11-07T01:52:56.683Z,12.10
2022-11-07T01:55:29.935Z,12.10
2022-11-07T01:58:06.589Z,12.20
2022-11-07T02:00:34.262Z,12.20
2022-11-07T02:03:13.935Z,12.10
2022-11-07T02:05:43.329Z,12.20
2022-11-07T02:08:11.735Z,12.20
2022-11-07T02:10:40.691Z,12.20
2022-11-07T02:13:08.329Z,12.10
2022-11-07T02:15:36.523Z,12.20
2022-11-07T02:18:03.597Z,12.20
2022-11-07T02:20:30.480Z,12.20
2022-11-07T02:23:03.681Z,12.30
2022-11-07T02:25:30.857Z,12.30
2022-11-07T02:27:59.835Z,12.10
2022-11-07T02:30:29.836Z,12.10
2022-11-07T02:32:56.827Z,12.20
2022-11-07T02:35:39.487Z,12.20
2022-11-07T02:38:20.284Z,12.10
2022-11-07T02:40:52.640Z,12.10
2022-11-07T02:43:23.526Z,12.20
2022-11-07T02:45:51.162Z,12.10
2022-11-07T02:48:18.444Z,12.10
2022-11-07T02:50:45.320Z,12.10
2022-11-07T02:53:12.845Z,12.20
2022-11-07T02:55:39.871Z,12.20
2022-11-07T02:58:06.985Z,12.20
2022-11-07T03:00:33.619Z,12.30
2022-11-07T03:03:00.574Z,12.30
2022-11-07T03:05:27.605Z,12.30
2022-11-07T03:07:54.662Z,12.30
2022-11-07T03:10:21.717Z,12.30
2022-11-07T03:12:48.754Z,12.30
2022-11-07T03:15:15.818Z,12.30
2022-11-07T03:17:43.709Z,12.40
2022-11-07T03:20:10.902Z,12.40
2022-11-07T03:22:37.892Z,12.40
2022-11-07T03:25:06.442Z,12.40
2022-11-07T03:27:33.137Z,12.40
2022-11-07T03:30:00.195Z,12.40
2022-11-07T03:32:27.303Z,12.50
2022-11-07T03:34:54.251Z,12.50
2022-11-07T03:37:21.280Z,12.50
2022-11-07T03:39:48.395Z,12.50
2022-11-07T03:42:15.370Z,12.50
2022-11-07T03:44:42.436Z,12.50
2022-11-07T03:47:09.560Z,12.50
2022-11-07T03:49:36.597Z,12.50
2022-11-07T03:52:03.743Z,12.40
2022-11-07T03:54:31.503Z,12.50
2022-11-07T03:56:58.502Z,12.40
2022-11-07T03:59:25.556Z,12.40
2022-11-07T04:01:52.786Z,12.40
2022-11-07T04:04:19.626Z,12.40
2022-11-07T04:06:46.356Z,12.40
2022-11-07T04:09:13.426Z,12.50
2022-11-07T04:11:59.028Z,12.50
2022-11-07T04:14:44.700Z,12.50
2022-11-07T04:17:20.892Z,12.50
2022-11-07T04:19:54.788Z,12.40
2022-11-07T04:22:25.698Z,12.40
2022-11-07T04:24:52.576Z,12.40
2022-11-07T04:27:38.722Z,12.40
2022-11-07T04:30:23.511Z,12.40
2022-11-07T04:32:55.595Z,12.40
2022-11-07T04:35:25.929Z,12.50
2022-11-07T04:37:53.641Z,12.50
2022-11-07T04:40:21.052Z,12.40
2022-11-07T04:42:48.919Z,12.40
2022-11-07T04:45:17.212Z,12.40
2022-11-07T04:47:44.243Z,12.30
2022-11-07T04:50:13.406Z,12.30
2022-11-07T04:52:40.767Z,12.30
2022-11-07T04:55:10.058Z,12.30
2022-11-07T04:57:37.015Z,12.30
2022-11-07T05:00:04.746Z,12.30
2022-11-07T05:02:31.607Z,12.40
2022-11-07T05:04:58.574Z,12.40
2022-11-07T05:07:25.695Z,12.30
2022-11-07T05:09:52.811Z,12.30
2022-11-07T05:12:20.885Z,12.30
2022-11-07T05:14:48.755Z,12.40
2022-11-07T05:17:26.870Z,12.40
2022-11-07T05:19:54.861Z,12.40
2022-11-07T05:22:40.652Z,12.40
2022-11-07T05:25:08.312Z,12.30
2022-11-07T05:27:35.242Z,12.30
2022-11-07T05:30:02.338Z,12.40
2022-11-07T05:32:29.268Z,12.50
2022-11-07T05:34:56.322Z,12.50
2022-11-07T05:37:22.969Z,12.50
2022-11-07T05:39:53.983Z,12.40
2022-11-07T05:42:22.018Z,12.40
2022-11-07T05:44:49.040Z,12.50
2022-11-07T05:47:16.081Z,12.40
2022-11-07T05:49:43.130Z,12.40
2022-11-07T05:52:10.196Z,12.40
2022-11-07T05:54:37.214Z,12.30
2022-11-07T05:57:04.275Z,12.40
2022-11-07T05:59:31.315Z,12.40
2022-11-07T06:01:58.468Z,12.40
2022-11-07T06:04:25.420Z,12.40
2022-11-07T06:06:52.464Z,12.40
2022-11-07T06:09:19.524Z,12.40
2022-11-07T06:11:46.546Z,12.40
2022-11-07T06:14:13.698Z,12.40
2022-11-07T06:16:40.640Z,12.40
2022-11-07T06:19:07.292Z,12.40
2022-11-07T06:21:35.032Z,12.40
2022-11-07T06:24:03.178Z,12.40
2022-11-07T06:26:30.475Z,12.50
2022-11-07T06:28:57.556Z,12.50
2022-11-07T06:31:24.697Z,12.50
2022-11-07T06:33:51.960Z,12.60
2022-11-07T06:36:18.757Z,12.50
2022-11-07T06:38:45.895Z,12.60
2022-11-07T06:41:15.087Z,12.60
2022-11-07T06:43:42.234Z,12.60
2022-11-07T06:46:12.537Z,12.60
2022-11-07T06:48:39.694Z,12.60
2022-11-07T06:51:07.544Z,12.70
2022-11-07T06:53:34.584Z,12.70
2022-11-07T06:56:03.504Z,12.70
2022-11-07T06:58:30.476Z,12.80
2022-11-07T07:01:05.595Z,12.70
2022-11-07T07:03:32.709Z,12.80
2022-11-07T07:06:04.625Z,12.80
2022-11-07T07:08:31.869Z,12.80
2022-11-07T07:11:03.672Z,12.80
2022-11-07T07:13:31.077Z,12.80
2022-11-07T07:15:58.656Z,12.70
2022-11-07T07:18:26.785Z,12.80
2022-11-07T07:21:14.940Z,12.80
2022-11-07T07:23:42.396Z,12.80
2022-11-07T07:26:14.835Z,12.80
2022-11-07T07:28:42.417Z,12.90
2022-11-07T07:31:15.257Z,12.90
2022-11-07T07:33:42.511Z,13.00
2022-11-07T07:36:09.880Z,13.00
2022-11-07T07:38:37.311Z,13.00
2022-11-07T07:41:05.525Z,13.10
2022-11-07T07:43:33.061Z,13.10
2022-11-07T07:46:01.475Z,13.20
2022-11-07T07:48:28.731Z,13.10
2022-11-07T07:50:55.860Z,13.10
2022-11-07T07:53:23.195Z,13.00
2022-11-07T07:55:50.205Z,13.10
2022-11-07T07:58:16.988Z,13.20
2022-11-07T08:00:43.677Z,13.20
2022-11-07T08:03:12.382Z,13.40
2022-11-07T08:05:39.677Z,13.50
2022-11-07T08:08:08.297Z,13.50
2022-11-07T08:10:43.333Z,13.50
2022-11-07T08:13:10.382Z,13.60
2022-11-07T08:15:37.319Z,13.60
2022-11-07T08:18:04.629Z,13.60
2022-11-07T08:20:31.519Z,13.60
2022-11-07T08:23:11.251Z,13.60
2022-11-07T08:25:41.593Z,13.60
2022-11-07T08:28:08.686Z,13.70
2022-11-07T08:30:36.023Z,13.60
2022-11-07T08:33:03.720Z,13.60
2022-11-07T08:35:31.392Z,13.50
2022-11-07T08:37:59.142Z,13.50
2022-11-07T08:40:26.271Z,13.50
2022-11-07T08:42:53.424Z,13.50
2022-11-07T08:45:20.383Z,13.80
2022-11-07T08:47:47.373Z,14.00
2022-11-07T08:50:14.474Z,14.10
2022-11-07T08:52:41.462Z,14.40
2022-11-07T08:55:08.865Z,14.50
2022-11-07T08:57:36.016Z,14.50
2022-11-07T09:00:04.304Z,14.60
2022-11-07T09:05:17.993Z,14.50
2022-11-07T09:07:45.062Z,14.80
2022-11-07T09:10:12.124Z,15.00
2022-11-07T09:12:49.007Z,15.30
2022-11-07T09:15:16.291Z,15.40
2022-11-07T09:17:43.124Z,15.50
2022-11-07T09:20:10.744Z,15.40
2022-11-07T09:22:37.592Z,15.20
2022-11-07T09:25:04.888Z,14.90
2022-11-07T09:27:31.761Z,14.80
2022-11-07T09:29:58.732Z,15.00
2022-11-07T09:32:43.971Z,15.20
2022-11-07T09:35:13.040Z,15.30
2022-11-07T09:37:41.347Z,15.30
2022-11-07T09:40:26.629Z,15.20
2022-11-07T09:43:06.371Z,15.40
2022-11-07T09:45:36.691Z,15.20
2022-11-07T09:48:12.344Z,15.20
2022-11-07T09:50:43.478Z,15.40
2022-11-07T09:53:25.295Z,15.60
2022-11-07T09:55:56.035Z,15.60
2022-11-07T09:58:37.429Z,15.40
2022-11-07T10:01:06.904Z,15.50
2022-11-07T10:03:36.883Z,15.50
2022-11-07T10:06:16.679Z,15.50
2022-11-07T10:09:11.304Z,15.90
2022-11-07T10:11:46.751Z,16.90
2022-11-07T10:14:32.241Z,17.60
2022-11-07T10:17:04.812Z,18.20
2022-11-07T10:19:37.540Z,18.00
2022-11-07T10:22:29.873Z,18.20
2022-11-07T10:25:20.094Z,18.50
2022-11-07T10:27:58.440Z,18.10
2022-11-07T10:30:25.106Z,18.60
2022-11-07T10:33:11.316Z,18.50
2022-11-07T10:35:43.921Z,17.90
2022-11-07T10:38:29.449Z,17.70
2022-11-07T10:40:56.631Z,17.60
2022-11-07T10:43:40.368Z,18.60
2022-11-07T10:46:16.319Z,18.50
2022-11-07T10:48:58.845Z,18.00
2022-11-07T10:51:40.019Z,18.30
2022-11-07T10:54:07.943Z,18.30
2022-11-07T10:57:04.833Z,18.70
2022-11-07T10:59:36.473Z,18.30
2022-11-07T11:02:20.594Z,18.00
2022-11-07T11:04:56.935Z,17.40
2022-11-07T11:07:35.719Z,17.10
2022-11-07T11:10:04.206Z,16.90
2022-11-07T11:12:34.677Z,16.70
2022-11-07T11:15:05.123Z,16.50
2022-11-07T11:17:33.582Z,16.30
2022-11-07T11:20:00.333Z,16.20
2022-11-07T11:22:29.411Z,16.00
2022-11-07T11:25:08.560Z,16.00
2022-11-07T11:27:36.847Z,16.10
2022-11-07T11:30:17.469Z,16.10
2022-11-07T11:33:09.096Z,15.90
2022-11-07T11:35:42.443Z,16.10
2022-11-07T11:38:15.148Z,16.00
2022-11-07T11:40:48.454Z,16.10
2022-11-07T11:43:22.724Z,16.20
2022-11-07T11:46:08.336Z,16.30
2022-11-07T11:48:55.864Z,16.60
2022-11-07T11:52:11.220Z,16.90
2022-11-07T11:54:38.087Z,17.20
2022-11-07T11:57:15.168Z,17.30
2022-11-07T12:00:07.309Z,17.60
2022-11-07T12:02:48.191Z,17.70
2022-11-07T12:05:34.825Z,18.10
2022-11-07T12:08:18.520Z,17.70
2022-11-07T12:11:06.514Z,17.20
2022-11-07T12:13:42.088Z,16.80
2022-11-07T12:16:25.373Z,16.60
2022-11-07T12:18:55.176Z,16.40
2022-11-07T12:21:48.709Z,16.40
2022-11-07T12:24:37.965Z,16.40
2022-11-07T12:27:29.162Z,16.60
2022-11-07T12:30:04.717Z,16.70
2022-11-07T12:32:47.065Z,16.80
2022-11-07T12:35:32.941Z,16.60
2022-11-07T12:38:37.633Z,16.60
2022-11-07T12:41:20.225Z,16.50
2022-11-07T12:44:05.535Z,16.60
2022-11-07T12:47:28.123Z,16.60
2022-11-07T12:50:23.158Z,16.80
2022-11-07T12:53:20.093Z,17.30
2022-11-07T12:55:51.671Z,17.60
2022-11-07T12:58:25.276Z,17.70
2022-11-07T13:00:52.739Z,17.60
2022-11-07T13:03:48.831Z,17.40
2022-11-07T13:06:25.912Z,17.40
2022-11-07T13:08:55.719Z,17.10
2022-11-07T13:11:37.472Z,17.00
2022-11-07T13:14:26.116Z,16.80
2022-11-07T13:17:01.664Z,16.60
2022-11-07T13:19:32.622Z,16.40
2022-11-07T13:22:05.429Z,16.30
2022-11-07T13:24:37.034Z,16.10
2022-11-07T13:27:22.404Z,16.10
2022-11-07T13:29:49.679Z,16.00
2022-11-07T13:32:16.752Z,16.10
2022-11-07T13:35:07.611Z,16.00
2022-11-07T13:37:43.654Z,15.90
2022-11-07T13:40:23.489Z,15.80
2022-11-07T13:42:57.183Z,16.00
2022-11-07T13:45:32.428Z,16.20
2022-11-07T13:48:09.815Z,16.20
2022-11-07T13:50:43.770Z,16.10
2022-11-07T13:53:27.452Z,16.00
2022-11-07T13:56:21.987Z,16.00
2022-11-07T13:58:51.178Z,16.00
2022-11-07T14:01:17.968Z,16.00
2022-11-07T14:03:44.763Z,16.10
2022-11-07T14:06:14.023Z,16.10
2022-11-07T14:08:44.785Z,16.10
2022-11-07T14:11:20.860Z,16.10
2022-11-07T14:13:52.596Z,16.00
2022-11-07T14:16:25.098Z,16.00
2022-11-07T14:18:55.063Z,16.00
2022-11-07T14:21:25.761Z,15.90
2022-11-07T14:23:54.097Z,15.90
2022-11-07T14:26:28.115Z,16.00
2022-11-07T14:28:56.826Z,16.20
2022-11-07T14:31:29.701Z,16.20
2022-11-07T14:34:02.050Z,16.30
2022-11-07T14:36:29.197Z,16.30
2022-11-07T14:39:11.305Z,16.20
2022-11-07T14:41:42.852Z,16.20
2022-11-07T14:44:28.528Z,16.20
2022-11-07T14:47:03.754Z,16.30
2022-11-07T14:49:39.554Z,16.20
2022-11-07T14:52:16.541Z,16.20
2022-11-07T14:54:44.998Z,16.00
2022-11-07T14:57:13.631Z,16.00
2022-11-07T14:59:41.465Z,16.10
2022-11-07T15:02:08.531Z,16.00
2022-11-07T15:04:39.574Z,15.90
2022-11-07T15:07:12.522Z,15.90
2022-11-07T15:09:40.816Z,15.80
2022-11-07T15:12:18.270Z,15.90
2022-11-07T15:14:45.693Z,15.90
2022-11-07T15:17:24.779Z,15.90
2022-11-07T15:20:02.389Z,15.80
2022-11-07T15:22:35.315Z,15.80
2022-11-07T15:25:02.609Z,15.80
2022-11-07T15:27:40.136Z,15.80
2022-11-07T15:30:24.642Z,15.80
2022-11-07T15:32:51.344Z,15.80
2022-11-07T15:35:42.929Z,15.80
2022-11-07T15:38:14.930Z,15.80
2022-11-07T15:40:41.978Z,15.70
2022-11-07T15:43:08.986Z,15.60
2022-11-07T15:45:36.253Z,15.60
2022-11-07T15:48:06.017Z,15.50
2022-11-07T15:50:33.876Z,15.50
2022-11-07T15:53:00.977Z,15.50
2022-11-07T15:55:28.033Z,15.50
2022-11-07T15:57:55.496Z,15.60
2022-11-07T16:00:26.335Z,15.50
2022-11-07T16:02:53.775Z,15.50
2022-11-07T16:05:20.600Z,15.40
2022-11-07T16:07:47.577Z,15.40
2022-11-07T16:10:25.801Z,15.30
2022-11-07T16:12:53.787Z,15.30
2022-11-07T16:15:23.670Z,15.20
2022-11-07T16:17:50.731Z,15.20
2022-11-07T16:20:23.244Z,15.10
2022-11-07T16:22:50.977Z,15.10
2022-11-07T16:25:22.323Z,15.10
2022-11-07T16:28:03.320Z,14.90
2022-11-07T16:30:30.023Z,14.90
2022-11-07T16:32:57.066Z,15.00
2022-11-07T16:35:23.848Z,15.00
2022-11-07T16:37:50.925Z,15.00
2022-11-07T16:40:19.695Z,14.90
2022-11-07T16:42:47.605Z,14.90
2022-11-07T16:45:16.839Z,14.90
2022-11-07T16:47:44.937Z,14.80
2022-11-07T16:50:16.122Z,14.80
2022-11-07T16:52:42.847Z,14.80
2022-11-07T16:55:19.727Z,14.80
2022-11-07T16:57:47.145Z,14.90
2022-11-07T17:00:20.067Z,14.80
2022-11-07T17:02:47.630Z,14.90
2022-11-07T17:05:14.561Z,14.80
2022-11-07T17:07:41.722Z,14.70
2022-11-07T17:10:14.986Z,14.80
2022-11-07T17:12:41.764Z,14.70
2022-11-07T17:15:09.613Z,14.80
2022-11-07T17:17:36.578Z,14.70
2022-11-07T17:20:03.727Z,14.70
2022-11-07T17:22:30.432Z,14.70
2022-11-07T17:24:57.443Z,14.80
2022-11-07T17:27:26.045Z,14.80
2022-11-07T17:29:53.745Z,14.80
2022-11-07T17:32:20.981Z,14.70
2022-11-07T17:34:59.243Z,14.70
2022-11-07T17:37:35.513Z,14.70
2022-11-07T17:40:02.449Z,14.70
2022-11-07T17:42:32.534Z,14.70
2022-11-07T17:45:02.103Z,14.60
2022-11-07T17:47:30.920Z,14.60
2022-11-07T17:49:58.462Z,14.60
2022-11-07T17:52:25.356Z,14.60
2022-11-07T17:54:52.972Z,14.70
2022-11-07T17:57:19.788Z,14.50
2022-11-07T17:59:46.814Z,14.50
2022-11-07T18:02:19.417Z,14.50
2022-11-07T18:04:46.961Z,14.40
2022-11-07T18:07:13.780Z,14.40
2022-11-07T18:09:41.592Z,14.30
2022-11-07T18:12:09.861Z,14.40
2022-11-07T18:14:37.276Z,14.50
2022-11-07T18:17:04.463Z,14.40
2022-11-07T18:19:31.542Z,14.40
2022-11-07T18:21:58.623Z,14.40
2022-11-07T18:24:25.557Z,14.40
2022-11-07T18:26:52.968Z,14.30
2022-11-07T18:29:20.136Z,14.30
2022-11-07T18:31:47.432Z,14.30
2022-11-07T18:34:14.859Z,14.40
2022-11-07T18:36:43.572Z,14.40
2022-11-07T18:39:24.094Z,14.40
2022-11-07T18:41:52.165Z,14.40
2022-11-07T18:44:19.389Z,14.40
2022-11-07T18:46:46.957Z,14.40
2022-11-07T18:49:14.947Z,14.30
2022-11-07T18:51:43.816Z,14.30
2022-11-07T18:54:13.572Z,14.30
2022-11-07T18:56:41.120Z,14.30
2022-11-07T18:59:08.661Z,14.30
2022-11-07T19:01:35.612Z,14.30
2022-11-07T19:04:05.584Z,14.30
2022-11-07T19:06:33.014Z,14.30
2022-11-07T19:09:00.481Z,14.30
2022-11-07T19:11:30.612Z,14.30
2022-11-07T19:14:01.697Z,14.40
2022-11-07T19:16:29.283Z,14.40
2022-11-07T19:18:58.140Z,14.50
2022-11-07T19:21:24.993Z,14.50
2022-11-07T19:23:51.860Z,14.50
2022-11-07T19:26:19.178Z,14.50
2022-11-07T19:28:46.893Z,14.40
2022-11-07T19:31:13.922Z,14.50
2022-11-07T19:33:41.733Z,14.50
2022-11-07T19:36:16.317Z,14.50
2022-11-07T19:38:44.092Z,14.50
2022-11-07T19:41:12.730Z,14.50
2022-11-07T19:43:42.247Z,14.50
2022-11-07T19:46:15.950Z,14.40
2022-11-07T19:48:43.999Z,14.30
2022-11-07T19:51:21.041Z,14.30
2022-11-07T19:53:55.982Z,14.30
2022-11-07T19:56:24.690Z,14.20
2022-11-07T19:58:51.772Z,14.20
2022-11-07T20:01:21.902Z,14.20
2022-11-07T20:03:51.221Z,14.20
2022-11-07T20:06:24.300Z,14.20
2022-11-07T20:08:51.512Z,14.10
2022-11-07T20:11:21.733Z,14.00
2022-11-07T20:13:48.755Z,13.90
2022-11-07T20:16:16.692Z,13.90
2022-11-07T20:18:43.501Z,13.80
2022-11-07T20:21:17.394Z,13.80
2022-11-07T20:23:46.099Z,13.80
2022-11-07T20:26:19.044Z,13.80
2022-11-07T20:28:47.555Z,13.70
2022-11-07T20:31:22.778Z,13.70
2022-11-07T20:33:50.113Z,13.70
2022-11-07T20:36:18.331Z,13.60
2022-11-07T20:38:46.779Z,13.60
2022-11-07T20:41:14.028Z,13.70
2022-11-07T20:43:41.394Z,13.70
2022-11-07T20:46:14.759Z,13.70
2022-11-07T20:48:42.366Z,13.60
2022-11-07T20:51:15.775Z,13.60
2022-11-07T20:53:49.799Z,13.60
2022-11-07T20:56:17.903Z,13.60
2022-11-07T20:58:45.161Z,13.50
2022-11-07T21:01:14.887Z,13.60
2022-11-07T21:03:41.700Z,13.50
2022-11-07T21:06:11.404Z,13.60
2022-11-07T21:08:39.188Z,13.50
2022-11-07T21:11:06.266Z,13.60
2022-11-07T21:13:34.053Z,13.50
2022-11-07T21:16:01.402Z,13.50
2022-11-07T21:18:28.409Z,13.50
2022-11-07T21:21:04.035Z,13.50
2022-11-07T21:23:31.149Z,13.50
2022-11-07T21:25:58.474Z,13.50
2022-11-07T21:28:26.321Z,13.50
2022-11-07T21:31:05.197Z,13.50
2022-11-07T21:33:33.375Z,13.50
2022-11-07T21:36:00.356Z,13.40
2022-11-07T21:38:27.313Z,13.40
2022-11-07T21:40:54.379Z,13.40
2022-11-07T21:43:21.384Z,13.40
2022-11-07T21:45:48.011Z,13.40
2022-11-07T21:48:16.626Z,13.40
2022-11-07T21:50:44.983Z,13.30
2022-11-07T21:53:12.556Z,13.40
2022-11-07T21:55:39.542Z,13.30
2022-11-07T21:58:06.528Z,13.30
2022-11-07T22:00:36.676Z,13.30
2022-11-07T22:03:04.660Z,13.30
2022-11-07T22:05:31.672Z,13.30
2022-11-07T22:07:58.570Z,13.30
2022-11-07T22:10:25.622Z,13.30
2022-11-07T22:12:53.365Z,13.20
2022-11-07T22:15:20.410Z,13.20
2022-11-07T22:17:47.513Z,13.20
2022-11-07T22:20:14.507Z,13.20
2022-11-07T22:22:41.566Z,13.20
2022-11-07T22:25:08.760Z,13.20
2022-11-07T22:27:37.235Z,13.10
2022-11-07T22:30:04.891Z,13.10
2022-11-07T22:32:31.853Z,13.10
2022-11-07T22:34:59.218Z,13.10
2022-11-07T22:37:26.336Z,13.10
2022-11-07T22:39:53.413Z,13.10
2022-11-07T22:42:23.795Z,13.00
2022-11-07T22:44:51.552Z,13.00
2022-11-07T22:47:18.612Z,13.00
2022-11-07T22:49:46.480Z,13.00
2022-11-07T22:52:13.500Z,13.00
2022-11-07T22:54:40.988Z,13.00
2022-11-07T22:57:08.006Z,13.00
2022-11-07T22:59:35.060Z,13.00
2022-11-07T23:02:02.240Z,13.00
2022-11-07T23:04:32.885Z,13.00
2022-11-07T23:06:59.896Z,12.90
2022-11-07T23:09:27.041Z,12.90
2022-11-07T23:11:53.985Z,13.00
2022-11-07T23:14:22.071Z,12.90
2022-11-07T23:16:55.340Z,12.90
2022-11-07T23:19:25.043Z,12.90
2022-11-07T23:21:54.639Z,12.90
2022-11-07T23:24:21.866Z,12.80
2022-11-07T23:26:48.568Z,12.80
2022-11-07T23:29:22.787Z,12.80
2022-11-07T23:31:50.527Z,12.80
2022-11-07T23:34:19.196Z,12.70
2022-11-07T23:36:46.489Z,12.70
2022-11-07T23:39:16.208Z,12.80
2022-11-07T23:41:43.544Z,12.70
2022-11-07T23:44:11.472Z,12.70
2022-11-07T23:46:56.959Z,12.60
2022-11-07T23:49:42.651Z,12.60
2022-11-07T23:52:09.764Z,12.60
2022-11-07T23:54:55.067Z,12.50
2022-11-07T23:57:21.973Z,12.50
